createdAt,value
2022-12-08T15:04:28.061Z,65.70
2022-12-08T15:07:03.810Z,57.73
2022-12-08T15:09:47.016Z,61.15
2022-12-08T15:12:15.567Z,53.40
2022-12-08T15:14:57.487Z,64.80
2022-12-08T15:17:40.647Z,59.08
2022-12-08T15:20:40.808Z,53.92
2022-12-08T15:23:27.542Z,52.53
2022-12-08T15:25:56.439Z,62.10
2022-12-08T15:28:30.119Z,50.72
2022-12-08T15:30:59.417Z,57.25
2022-12-08T15:33:28.400Z,48.92
2022-12-08T15:35:56.493Z,63.00
2022-12-08T15:38:29.327Z,60.10
2022-12-08T15:41:00.885Z,53.17
2022-12-08T15:43:33.788Z,57.50
2022-12-08T15:46:01.970Z,61.67
2022-12-08T15:48:31.279Z,64.38
2022-12-08T15:50:59.848Z,61.65
2022-12-08T15:53:28.358Z,60.45
2022-12-08T15:58:54.294Z,64.15
2022-12-08T16:01:23.849Z,61.47
2022-12-08T16:04:36.919Z,61.92
2022-12-08T16:07:20.410Z,67.43
2022-12-08T16:09:38.664Z,60.70
2022-12-08T16:13:13.463Z,69.95
2022-12-08T16:18:16.191Z,61.58
2022-12-08T16:21:07.489Z,68.55
2022-12-08T16:23:43.018Z,63.80
2022-12-08T16:27:01.057Z,71.78
2022-12-08T16:29:18.859Z,66.07
2022-12-08T16:31:47.626Z,56.25
2022-12-08T16:34:16.207Z,65.35
2022-12-08T16:36:44.648Z,72.78
2022-12-08T16:39:14.696Z,58.30
2022-12-08T16:42:01.829Z,55.38
2022-12-08T16:44:30.191Z,58.97
2022-12-08T16:46:58.638Z,57.30
2022-12-08T16:49:26.741Z,64.00
2022-12-08T16:51:55.185Z,59.38
2022-12-08T16:54:23.317Z,60.58
2022-12-08T16:56:51.791Z,56.50
2022-12-08T16:59:19.914Z,57.55
2022-12-08T17:01:48.432Z,64.40
2022-12-08T17:04:31.491Z,64.82
2022-12-08T17:07:00.617Z,56.03
2022-12-08T17:09:30.788Z,55.85
2022-12-08T17:12:03.761Z,59.77
2022-12-08T17:14:35.725Z,54.50
2022-12-08T17:19:32.898Z,57.92
2022-12-08T17:22:02.360Z,53.10
2022-12-08T17:24:30.868Z,56.47
2022-12-08T17:27:04.243Z,50.83
2022-12-08T17:29:33.591Z,52.78
2022-12-08T17:32:02.436Z,50.88
2022-12-08T17:34:30.675Z,59.17
2022-12-08T17:36:59.244Z,52.92
2022-12-08T17:39:27.408Z,54.83
2022-12-08T17:41:55.872Z,56.65
2022-12-08T17:44:24.409Z,56.53
2022-12-08T17:46:53.468Z,60.58
2022-12-08T17:49:23.981Z,60.67
2022-12-08T17:51:54.537Z,64.35
2022-12-08T17:54:22.719Z,60.05
2022-12-08T17:56:51.459Z,52.17
2022-12-08T17:59:19.806Z,55.30
2022-12-08T18:01:48.366Z,48.75
2022-12-08T18:04:16.529Z,51.03
2022-12-08T18:06:44.953Z,50.05
2022-12-08T18:09:13.121Z,46.65
2022-12-08T18:11:41.817Z,56.47
2022-12-08T18:14:10.479Z,56.95
2022-12-08T18:16:44.785Z,51.80
2022-12-08T18:19:13.626Z,50.85
2022-12-08T18:21:43.149Z,51.38
2022-12-08T18:24:18.663Z,58.22
2022-12-08T18:26:47.480Z,53.60
2022-12-08T18:29:15.711Z,49.58
2022-12-08T18:31:44.384Z,50.53
2022-12-08T18:34:12.517Z,54.60
2022-12-08T18:36:41.053Z,54.70
2022-12-08T18:39:21.127Z,52.83
2022-12-08T18:41:49.746Z,50.30
2022-12-08T18:44:18.577Z,48.50
2022-12-08T18:46:47.353Z,51.88
2022-12-08T18:49:17.681Z,48.95
2022-12-08T18:51:46.486Z,46.47
2022-12-08T18:54:14.721Z,52.88
2022-12-08T18:56:43.229Z,60.45
2022-12-08T18:59:13.460Z,56.60
2022-12-08T19:01:42.100Z,56.27
2022-12-08T19:06:59.041Z,58.20
2022-12-08T19:09:28.999Z,59.50
2022-12-08T19:11:58.090Z,63.85
2022-12-08T19:14:28.570Z,64.00
2022-12-08T19:17:00.567Z,61.75
2022-12-08T19:19:29.193Z,65.35
2022-12-08T19:21:57.808Z,63.42
2022-12-08T19:24:26.010Z,65.97
2022-12-08T19:26:54.552Z,72.22
2022-12-08T19:29:22.865Z,64.20
2022-12-08T19:31:51.388Z,65.28
2022-12-08T19:34:20.001Z,61.72
2022-12-08T19:36:48.697Z,60.38
2022-12-08T19:39:41.378Z,61.95
2022-12-08T19:42:36.788Z,54.42
2022-12-08T19:45:16.318Z,58.72
2022-12-08T19:47:45.156Z,58.30
2022-12-08T19:50:33.094Z,56.40
2022-12-08T19:53:07.283Z,55.03
2022-12-08T19:55:35.850Z,65.32
2022-12-08T19:58:05.082Z,57.80
2022-12-08T20:00:34.597Z,62.67
2022-12-08T20:03:03.855Z,56.97
2022-12-08T20:05:34.003Z,57.00
2022-12-08T20:08:02.634Z,59.13
2022-12-08T20:10:35.279Z,60.67
2022-12-08T20:13:22.971Z,61.00
2022-12-08T20:15:51.545Z,63.03
2022-12-08T20:18:20.086Z,58.00
2022-12-08T20:20:48.820Z,59.05
2022-12-08T20:23:17.476Z,59.75
2022-12-08T20:25:47.629Z,51.35
2022-12-08T20:28:16.143Z,61.17
2022-12-08T20:30:46.961Z,64.20
2022-12-08T20:33:17.113Z,63.97
2022-12-08T20:35:46.045Z,62.45
2022-12-08T20:38:14.667Z,65.45
2022-12-08T20:40:47.501Z,62.33
2022-12-08T20:43:16.007Z,66.93
2022-12-08T20:45:44.113Z,72.88
2022-12-08T20:48:12.716Z,76.95
2022-12-08T20:50:40.968Z,74.22
2022-12-08T20:53:09.849Z,70.75
2022-12-08T20:55:42.325Z,72.85
2022-12-08T20:58:10.959Z,79.22
2022-12-08T21:00:39.216Z,68.50
2022-12-08T21:03:07.920Z,68.78
2022-12-08T21:05:39.006Z,64.90
2022-12-08T21:08:08.404Z,75.57
2022-12-08T21:10:42.197Z,64.90
2022-12-08T21:13:12.678Z,78.53
2022-12-08T21:15:46.608Z,68.40
2022-12-08T21:18:17.013Z,70.35
2022-12-08T21:20:45.501Z,70.75
2022-12-08T21:23:14.120Z,74.70
2022-12-08T21:25:44.650Z,75.38
2022-12-08T21:28:13.904Z,73.72
2022-12-08T21:30:43.244Z,80.00
2022-12-08T21:33:11.778Z,77.13
2022-12-08T21:35:40.111Z,78.05
2022-12-08T21:38:09.377Z,71.63
2022-12-08T21:40:37.703Z,76.63
2022-12-08T21:43:06.342Z,68.57
2022-12-08T21:45:35.408Z,74.90
2022-12-08T21:48:10.939Z,67.30
2022-12-08T21:50:39.778Z,66.80
2022-12-08T21:53:08.370Z,71.95
2022-12-08T21:55:36.587Z,76.65
2022-12-08T21:58:05.674Z,65.07
2022-12-08T22:00:34.076Z,68.07
2022-12-08T22:03:03.557Z,75.72
2022-12-08T22:05:32.133Z,65.18
2022-12-08T22:08:01.177Z,72.68
2022-12-08T22:10:29.559Z,69.63
2022-12-08T22:12:58.190Z,74.93
2022-12-08T22:15:26.470Z,67.47
2022-12-08T22:17:55.009Z,71.15
2022-12-08T22:20:23.413Z,68.97
2022-12-08T22:22:52.034Z,76.22
2022-12-08T22:25:20.713Z,70.32
2022-12-08T22:27:49.351Z,78.28
2022-12-08T22:30:17.525Z,77.10
2022-12-08T22:32:46.689Z,90.53
